createdAt,value
2023-03-28T00:01:06.592Z,101080.50
2023-03-28T00:03:36.480Z,101083.06
2023-03-28T00:06:09.567Z,101087.34
2023-03-28T00:08:39.462Z,101092.44
2023-03-28T00:11:08.903Z,101084.38
2023-03-28T00:13:36.427Z,101090.44
2023-03-28T00:16:05.810Z,101099.31
2023-03-28T00:18:37.517Z,101096.44
2023-03-28T00:21:04.237Z,101102.47
2023-03-28T00:23:31.132Z,101101.13
2023-03-28T00:25:57.801Z,101106.03
2023-03-28T00:28:24.472Z,101110.41
2023-03-28T00:30:51.053Z,101114.09
2023-03-28T00:33:18.444Z,101107.31
2023-03-28T00:35:44.976Z,101118.69
2023-03-28T00:38:13.862Z,101118.78
2023-03-28T00:40:40.553Z,101114.84
2023-03-28T00:43:07.342Z,101125.84
2023-03-28T00:45:33.968Z,101128.81
2023-03-28T00:48:05.300Z,101130.28
2023-03-28T00:50:38.743Z,101133.91
2023-03-28T00:53:16.756Z,101137.53
2023-03-28T00:55:53.318Z,101146.00
2023-03-28T00:58:26.777Z,101143.16
2023-03-28T01:00:57.325Z,101142.53
2023-03-28T01:03:27.933Z,101145.09
2023-03-28T01:05:55.409Z,101146.72
2023-03-28T01:08:30.466Z,101147.31
2023-03-28T01:10:57.085Z,101152.94
2023-03-28T01:13:31.352Z,101156.09
2023-03-28T01:15:59.567Z,101159.09
2023-03-28T01:18:26.506Z,101162.56
2023-03-28T01:21:05.204Z,101164.16
2023-03-28T01:23:52.804Z,101161.97
2023-03-28T01:26:49.116Z,101164.78
2023-03-28T01:29:45.784Z,101175.75
2023-03-28T01:32:46.717Z,101179.22
2023-03-28T01:35:37.066Z,101176.84
2023-03-28T01:38:35.839Z,101183.44
2023-03-28T01:41:20.526Z,101180.41
2023-03-28T01:44:06.164Z,101191.38
2023-03-28T01:46:39.004Z,101195.47
2023-03-28T01:49:21.895Z,101187.31
2023-03-28T01:51:57.343Z,101194.09
2023-03-28T01:54:30.124Z,101195.38
2023-03-28T01:57:10.488Z,101203.84
2023-03-28T01:59:48.434Z,101208.13
2023-03-28T02:02:45.862Z,101209.25
2023-03-28T02:05:34.507Z,101207.97
2023-03-28T02:08:04.451Z,101216.81
2023-03-28T02:10:41.296Z,101220.38
2023-03-28T02:13:34.063Z,101221.91
2023-03-28T02:16:23.057Z,101217.94
2023-03-28T02:19:09.622Z,101235.91
2023-03-28T02:22:11.709Z,101244.63
2023-03-28T02:24:57.760Z,101260.34
2023-03-28T02:27:36.820Z,101246.56
2023-03-28T02:30:21.608Z,101244.94
2023-03-28T02:32:50.543Z,101243.19
2023-03-28T02:35:24.917Z,101248.91
2023-03-28T02:38:11.322Z,101253.50
2023-03-28T02:40:54.189Z,101241.13
2023-03-28T02:43:31.165Z,101253.19
2023-03-28T02:46:14.741Z,101253.03
2023-03-28T02:48:48.512Z,101249.69
2023-03-28T02:51:46.325Z,101267.75
2023-03-28T02:54:41.850Z,101262.84
2023-03-28T02:57:33.531Z,101270.94
2023-03-28T03:00:12.000Z,101263.81
2023-03-28T03:02:40.491Z,101280.78
2023-03-28T03:05:07.516Z,101281.25
2023-03-28T03:07:34.043Z,101270.75
2023-03-28T03:10:01.252Z,101282.19
2023-03-28T03:12:30.371Z,101285.22
2023-03-28T03:15:01.140Z,101284.56
2023-03-28T03:17:47.857Z,101295.84
2023-03-28T03:20:15.790Z,101302.50
2023-03-28T03:22:42.340Z,101306.72
2023-03-28T03:25:09.457Z,101304.72
2023-03-28T03:27:46.873Z,101305.81
2023-03-28T03:30:13.925Z,101314.84
2023-03-28T03:33:00.860Z,101317.56
2023-03-28T03:35:33.446Z,101326.44
2023-03-28T03:38:04.243Z,101325.41
2023-03-28T03:40:30.876Z,101331.28
2023-03-28T03:42:57.936Z,101328.25
2023-03-28T03:45:24.655Z,101339.03
2023-03-28T03:47:51.312Z,101324.69
2023-03-28T03:50:17.922Z,101339.53
2023-03-28T03:52:44.470Z,101346.09
2023-03-28T03:55:11.590Z,101344.00
2023-03-28T03:57:40.166Z,101346.06
2023-03-28T04:00:11.815Z,101346.75
2023-03-28T04:02:48.243Z,101351.69
2023-03-28T04:05:21.094Z,101354.38
2023-03-28T04:08:01.604Z,101355.00
2023-03-28T04:10:33.411Z,101363.44
2023-03-28T04:13:00.249Z,101370.00
2023-03-28T04:15:26.954Z,101379.94
2023-03-28T04:17:59.746Z,101379.56
2023-03-28T04:20:29.683Z,101384.59
2023-03-28T04:23:05.696Z,101388.97
2023-03-28T04:25:32.966Z,101389.47
2023-03-28T04:28:04.650Z,101402.09
2023-03-28T04:30:38.158Z,101405.56
2023-03-28T04:33:28.445Z,101412.19
2023-03-28T04:36:02.377Z,101410.88
2023-03-28T04:38:36.064Z,101418.28
2023-03-28T04:41:20.847Z,101430.63
2023-03-28T04:44:09.888Z,101438.81
2023-03-28T04:46:43.587Z,101439.38
2023-03-28T04:49:13.148Z,101448.66
2023-03-28T04:51:39.857Z,101452.00
2023-03-28T04:54:06.705Z,101452.28
2023-03-28T04:57:02.540Z,101463.69
2023-03-28T04:59:37.868Z,101465.16
2023-03-28T05:02:04.465Z,101469.00
2023-03-28T05:04:42.427Z,101468.88
2023-03-28T05:07:09.414Z,101476.69
2023-03-28T05:09:36.240Z,101473.38
2023-03-28T05:12:03.260Z,101476.50
2023-03-28T05:14:32.886Z,101481.31
2023-03-28T05:17:11.629Z,101486.75
2023-03-28T05:19:52.026Z,101499.94
2023-03-28T05:22:21.810Z,101500.13
2023-03-28T05:24:48.398Z,101505.59
2023-03-28T05:27:20.156Z,101509.69
2023-03-28T05:29:47.578Z,101522.78
2023-03-28T05:32:14.608Z,101519.00
2023-03-28T05:34:41.828Z,101526.16
2023-03-28T05:37:09.390Z,101527.59
2023-03-28T05:40:02.483Z,101533.16
2023-03-28T05:42:31.205Z,101531.69
2023-03-28T05:44:57.760Z,101537.19
2023-03-28T05:47:38.353Z,101541.69
2023-03-28T05:50:05.432Z,101542.66
2023-03-28T05:52:31.919Z,101555.00
2023-03-28T05:54:58.559Z,101561.75
2023-03-28T05:57:25.281Z,101557.75
2023-03-28T05:59:53.776Z,101568.19
2023-03-28T06:02:23.023Z,101568.47
2023-03-28T06:04:53.838Z,101562.94
2023-03-28T06:07:31.517Z,101564.91
2023-03-28T06:10:08.389Z,101571.50
2023-03-28T06:12:36.624Z,101574.13
2023-03-28T06:15:04.513Z,101581.56
2023-03-28T06:17:35.470Z,101583.34
2023-03-28T06:20:02.268Z,101584.22
2023-03-28T06:22:29.839Z,101583.09
2023-03-28T06:25:00.880Z,101588.84
2023-03-28T06:27:31.914Z,101590.13
2023-03-28T06:29:59.985Z,101600.97
2023-03-28T06:32:28.421Z,101600.53
2023-03-28T06:34:54.973Z,101594.94
2023-03-28T06:37:23.537Z,101602.22
2023-03-28T06:39:59.969Z,101602.88
2023-03-28T06:42:27.171Z,101617.22
2023-03-28T06:44:59.771Z,101609.81
2023-03-28T06:47:39.305Z,101620.81
2023-03-28T06:50:07.793Z,101622.22
2023-03-28T06:52:44.180Z,101624.78
2023-03-28T06:55:11.304Z,101625.16
2023-03-28T06:57:37.998Z,101640.16
2023-03-28T07:00:34.507Z,101627.94
2023-03-28T07:03:23.912Z,101638.84
2023-03-28T07:05:50.710Z,101634.41
2023-03-28T07:08:17.406Z,101633.34
2023-03-28T07:10:43.925Z,101648.44
2023-03-28T07:13:12.251Z,101648.31
2023-03-28T07:15:48.487Z,101657.69
2023-03-28T07:18:15.461Z,101648.00
2023-03-28T07:20:43.050Z,101649.00
2023-03-28T07:23:11.974Z,101651.72
2023-03-28T07:25:39.113Z,101658.97
2023-03-28T07:28:05.862Z,101661.94
2023-03-28T07:30:33.552Z,101669.38
2023-03-28T07:33:12.463Z,101664.00
2023-03-28T07:35:43.827Z,101664.00
2023-03-28T07:38:13.036Z,101667.56
2023-03-28T07:40:48.985Z,101664.13
2023-03-28T07:43:15.645Z,101667.03
2023-03-28T07:45:42.182Z,101666.31
2023-03-28T07:48:08.758Z,101678.22
2023-03-28T07:50:36.557Z,101677.75
2023-03-28T07:53:03.094Z,101686.50
2023-03-28T07:55:44.889Z,101686.28
2023-03-28T07:58:21.284Z,101689.97
2023-03-28T08:00:48.037Z,101696.03
2023-03-28T08:03:33.789Z,101692.00
2023-03-28T08:06:02.786Z,101698.56
2023-03-28T08:08:29.952Z,101699.22
2023-03-28T08:11:28.940Z,101704.44
2023-03-28T08:13:55.581Z,101706.09
2023-03-28T08:16:24.839Z,101705.50
2023-03-28T08:19:03.534Z,101706.75
2023-03-28T08:21:42.688Z,101711.88
2023-03-28T08:24:12.837Z,101703.53
2023-03-28T08:26:54.131Z,101713.91
2023-03-28T08:29:20.744Z,101715.94
2023-03-28T08:31:48.056Z,101716.13
2023-03-28T08:34:15.704Z,101718.19
2023-03-28T08:36:43.296Z,101723.19
2023-03-28T08:39:21.933Z,101721.88
2023-03-28T08:42:10.553Z,101714.72
2023-03-28T08:45:01.793Z,101718.09
2023-03-28T08:47:33.550Z,101722.91
2023-03-28T08:50:09.728Z,101712.53
2023-03-28T08:52:38.541Z,101725.78
2023-03-28T08:55:11.354Z,101732.41
2023-03-28T08:57:38.935Z,101736.09
2023-03-28T09:00:09.887Z,101737.16
2023-03-28T09:02:38.443Z,101746.34
2023-03-28T09:05:21.997Z,101738.75
2023-03-28T09:08:19.262Z,101742.81
2023-03-28T09:11:10.201Z,101741.22
2023-03-28T09:13:57.709Z,101737.41
2023-03-28T09:16:55.491Z,101741.88
2023-03-28T09:19:46.886Z,101752.44
2023-03-28T09:22:40.202Z,101748.25
2023-03-28T09:25:32.598Z,101756.97
2023-03-28T09:28:12.730Z,101771.44
2023-03-28T09:30:43.821Z,101763.06
2023-03-28T09:33:18.430Z,101769.81
2023-03-28T09:35:47.224Z,101764.41
2023-03-28T09:38:24.879Z,101758.19
2023-03-28T09:40:54.637Z,101757.56
2023-03-28T09:43:53.999Z,101761.50
2023-03-28T09:46:53.795Z,101774.19
2023-03-28T09:49:24.854Z,101775.41
2023-03-28T09:51:58.575Z,101780.50
2023-03-28T09:54:31.212Z,101773.69
2023-03-28T09:57:03.432Z,101781.84
2023-03-28T09:59:57.585Z,101787.34
2023-03-28T10:02:30.442Z,101783.16
2023-03-28T10:05:01.181Z,101795.16
2023-03-28T10:07:45.026Z,101784.81
2023-03-28T10:10:30.786Z,101782.31
2023-03-28T10:13:04.838Z,101778.56
2023-03-28T10:15:40.119Z,101781.53
2023-03-28T10:18:22.428Z,101778.03
2023-03-28T10:21:11.781Z,101780.69
2023-03-28T10:23:41.487Z,101776.88
2023-03-28T10:26:09.786Z,101787.31
2023-03-28T10:28:37.440Z,101786.66
2023-03-28T10:31:04.832Z,101791.25
2023-03-28T10:33:37.452Z,101785.78
2023-03-28T10:36:32.928Z,101788.19
2023-03-28T10:39:23.778Z,101795.34
2023-03-28T10:42:11.032Z,101779.66
2023-03-28T10:45:00.197Z,101775.13
2023-03-28T10:47:29.491Z,101787.72
2023-03-28T10:50:21.430Z,101792.22
2023-03-28T10:53:03.196Z,101780.19
2023-03-28T10:55:58.767Z,101790.56
2023-03-28T10:59:06.518Z,101795.56
2023-03-28T11:01:43.835Z,101791.56
2023-03-28T11:04:16.849Z,101795.78
2023-03-28T11:06:51.610Z,101776.78
2023-03-28T11:09:33.851Z,101798.88
2023-03-28T11:12:40.936Z,101797.25
2023-03-28T11:15:36.822Z,101790.97
2023-03-28T11:18:45.796Z,101790.41
2023-03-28T11:21:49.621Z,101806.31
2023-03-28T11:24:27.861Z,101806.69
2023-03-28T11:27:25.831Z,101807.38
2023-03-28T11:30:06.684Z,101806.31
2023-03-28T11:32:44.198Z,101808.69
2023-03-28T11:38:04.521Z,101815.97
2023-03-28T11:40:45.906Z,101815.44
2023-03-28T11:43:28.246Z,101808.97
2023-03-28T11:45:59.902Z,101807.38
2023-03-28T11:48:32.264Z,101806.00
2023-03-28T11:51:14.747Z,101798.72
2023-03-28T11:54:16.801Z,101799.22
2023-03-28T11:57:01.837Z,101801.03
2023-03-28T11:59:40.464Z,101792.47
2023-03-28T12:02:30.248Z,101796.34
2023-03-28T12:05:16.607Z,101795.19
2023-03-28T12:07:50.496Z,101799.06
2023-03-28T12:10:36.403Z,101799.00
2023-03-28T12:13:15.219Z,101789.91
2023-03-28T12:15:58.275Z,101791.53
2023-03-28T12:18:34.417Z,101802.28
2023-03-28T12:21:11.710Z,101789.59
2023-03-28T12:23:55.788Z,101785.84
2023-03-28T12:27:07.987Z,101791.84
2023-03-28T12:29:44.129Z,101795.72
2023-03-28T12:32:44.480Z,101789.72
2023-03-28T12:35:22.818Z,101790.09
2023-03-28T12:38:22.723Z,101808.66
2023-03-28T12:41:05.939Z,101806.63
2023-03-28T12:43:49.691Z,101803.03
2023-03-28T12:46:25.985Z,101800.56
2023-03-28T12:49:02.467Z,101798.34
2023-03-28T12:51:38.794Z,101792.72
2023-03-28T12:54:15.689Z,101791.81
2023-03-28T12:57:07.130Z,101800.88
2023-03-28T12:59:40.063Z,101803.38
2023-03-28T13:02:24.367Z,101796.28
2023-03-28T13:05:13.429Z,101805.53
2023-03-28T13:07:52.626Z,101803.75
2023-03-28T13:10:29.732Z,101810.69
2023-03-28T13:13:13.398Z,101802.16
2023-03-28T13:16:03.097Z,101793.06
2023-03-28T13:18:31.999Z,101790.81
2023-03-28T13:21:00.410Z,101798.19
2023-03-28T13:23:30.484Z,101793.94
2023-03-28T13:25:59.122Z,101787.94
2023-03-28T13:28:59.163Z,101790.00
2023-03-28T13:31:26.505Z,101797.06
2023-03-28T13:33:58.338Z,101796.28
2023-03-28T13:36:27.622Z,101787.56
2023-03-28T13:39:09.717Z,101781.84
2023-03-28T13:41:55.395Z,101789.19
2023-03-28T13:44:30.963Z,101785.19
2023-03-28T13:46:57.574Z,101787.75
2023-03-28T13:49:48.386Z,101783.16
2023-03-28T13:52:23.405Z,101786.63
2023-03-28T13:54:54.386Z,101788.00
2023-03-28T13:57:27.380Z,101782.91
2023-03-28T14:00:00.917Z,101793.94
2023-03-28T14:02:43.946Z,101784.50
2023-03-28T14:05:15.544Z,101793.91
2023-03-28T14:07:42.075Z,101782.81
2023-03-28T14:10:35.970Z,101779.59
2023-03-28T14:13:07.892Z,101790.69
2023-03-28T14:15:36.429Z,101781.00
2023-03-28T14:18:03.698Z,101784.94
2023-03-28T14:20:32.683Z,101784.34
2023-03-28T14:23:01.293Z,101786.78
2023-03-28T14:25:28.661Z,101774.25
2023-03-28T14:27:56.392Z,101774.66
2023-03-28T14:30:32.074Z,101779.59
2023-03-28T14:33:01.313Z,101775.56
2023-03-28T14:35:35.395Z,101779.69
2023-03-28T14:38:06.702Z,101772.31
2023-03-28T14:40:36.435Z,101773.78
2023-03-28T14:43:06.262Z,101774.16
2023-03-28T14:46:02.886Z,101777.56
2023-03-28T14:48:29.775Z,101767.59
2023-03-28T14:50:56.950Z,101777.50
2023-03-28T14:53:25.384Z,101767.25
2023-03-28T14:55:54.520Z,101782.84
2023-03-28T14:58:24.528Z,101780.63
2023-03-28T15:00:58.247Z,101772.31
2023-03-28T15:03:33.939Z,101770.28
2023-03-28T15:06:00.973Z,101776.31
2023-03-28T15:08:34.626Z,101777.50
2023-03-28T15:11:03.947Z,101772.81
2023-03-28T15:13:33.854Z,101775.69
2023-03-28T15:16:00.636Z,101771.28
2023-03-28T15:18:33.602Z,101770.63
2023-03-28T15:21:02.010Z,101773.09
2023-03-28T15:23:35.076Z,101768.50
2023-03-28T15:26:09.539Z,101773.75
2023-03-28T15:28:36.117Z,101766.81
2023-03-28T15:31:04.027Z,101758.91
2023-03-28T15:33:34.278Z,101767.44
2023-03-28T15:36:08.534Z,101765.69
2023-03-28T15:38:40.467Z,101762.22
2023-03-28T15:41:23.528Z,101758.41
2023-03-28T15:43:52.674Z,101753.50
2023-03-28T15:46:21.394Z,101755.22
2023-03-28T15:48:48.902Z,101752.19
2023-03-28T15:51:17.694Z,101756.13
2023-03-28T15:53:48.411Z,101743.41
2023-03-28T15:56:28.662Z,101754.28
2023-03-28T15:59:00.398Z,101757.16
2023-03-28T16:01:29.482Z,101755.81
2023-03-28T16:04:24.746Z,101752.97
2023-03-28T16:07:12.407Z,101757.72
2023-03-28T16:09:43.019Z,101755.91
2023-03-28T16:12:14.347Z,101755.00
2023-03-28T16:14:46.749Z,101754.75
2023-03-28T16:17:25.084Z,101749.31
2023-03-28T16:20:02.319Z,101756.13
2023-03-28T16:22:29.125Z,101750.66
2023-03-28T16:24:55.645Z,101754.81
2023-03-28T16:27:22.363Z,101757.97
2023-03-28T16:29:49.142Z,101759.44
2023-03-28T16:32:16.420Z,101757.72
2023-03-28T16:34:43.441Z,101755.81
2023-03-28T16:37:10.498Z,101755.41
2023-03-28T16:39:41.422Z,101754.72
2023-03-28T16:42:07.961Z,101759.34
2023-03-28T16:44:34.934Z,101761.50
2023-03-28T16:47:02.431Z,101758.22
2023-03-28T16:49:29.258Z,101757.19
2023-03-28T16:51:56.276Z,101762.63
2023-03-28T16:54:23.482Z,101757.69
2023-03-28T16:56:50.294Z,101755.06
2023-03-28T16:59:16.831Z,101749.28
2023-03-28T17:01:46.169Z,101747.78
2023-03-28T17:04:12.893Z,101740.75
2023-03-28T17:06:39.426Z,101753.13
2023-03-28T17:09:06.771Z,101743.72
2023-03-28T17:11:33.348Z,101741.59
2023-03-28T17:13:59.976Z,101739.78
2023-03-28T17:16:27.238Z,101731.63
2023-03-28T17:18:53.842Z,101737.06
2023-03-28T17:21:20.797Z,101735.72
2023-03-28T17:23:49.021Z,101728.38
2023-03-28T17:26:16.221Z,101735.00
2023-03-28T17:28:43.477Z,101732.69
2023-03-28T17:31:13.617Z,101732.38
2023-03-28T17:33:40.670Z,101732.59
2023-03-28T17:36:23.271Z,101732.81
2023-03-28T17:38:51.345Z,101728.63
2023-03-28T17:41:18.352Z,101733.97
2023-03-28T17:43:44.922Z,101728.88
2023-03-28T17:46:12.798Z,101735.38
2023-03-28T17:48:40.185Z,101737.16
2023-03-28T17:51:07.724Z,101728.44
2023-03-28T17:53:34.354Z,101733.00
2023-03-28T17:56:01.705Z,101729.50
2023-03-28T17:58:28.640Z,101734.25
2023-03-28T18:00:55.187Z,101735.63
2023-03-28T18:03:22.570Z,101734.47
2023-03-28T18:06:15.231Z,101730.38
2023-03-28T18:08:44.601Z,101731.28
2023-03-28T18:11:14.402Z,101729.25
2023-03-28T18:13:41.463Z,101729.78
2023-03-28T18:16:10.881Z,101727.44
2023-03-28T18:18:38.360Z,101729.47
2023-03-28T18:21:07.497Z,101730.59
2023-03-28T18:23:34.882Z,101728.41
2023-03-28T18:26:01.686Z,101734.22
2023-03-28T18:28:28.407Z,101734.88
2023-03-28T18:30:54.976Z,101742.09
2023-03-28T18:33:22.123Z,101746.16
2023-03-28T18:35:49.028Z,101745.13
2023-03-28T18:38:15.907Z,101747.06
2023-03-28T18:40:42.533Z,101745.00
2023-03-28T18:43:09.527Z,101747.94
2023-03-28T18:45:36.384Z,101746.34
2023-03-28T18:48:03.514Z,101743.97
2023-03-28T18:50:30.127Z,101743.84
2023-03-28T18:52:57.419Z,101742.94
2023-03-28T18:55:24.186Z,101746.31
2023-03-28T18:57:50.700Z,101742.69
2023-03-28T19:00:19.041Z,101744.13
2023-03-28T19:02:46.861Z,101738.59
2023-03-28T19:05:15.384Z,101744.22
2023-03-28T19:07:42.926Z,101746.69
2023-03-28T19:10:11.710Z,101745.75
2023-03-28T19:12:38.305Z,101734.44
2023-03-28T19:15:05.944Z,101739.06
2023-03-28T19:17:36.380Z,101737.59
2023-03-28T19:20:07.871Z,101738.94
2023-03-28T19:22:35.156Z,101735.91
2023-03-28T19:25:01.831Z,101739.63
2023-03-28T19:27:28.343Z,101741.53
2023-03-28T19:29:55.030Z,101739.81
2023-03-28T19:32:21.545Z,101739.81
2023-03-28T19:34:48.060Z,101740.13
2023-03-28T19:37:14.571Z,101738.88
2023-03-28T19:39:41.130Z,101744.50
2023-03-28T19:42:07.597Z,101744.31
2023-03-28T19:44:34.122Z,101740.47
2023-03-28T19:47:00.795Z,101747.34
2023-03-28T19:49:27.375Z,101738.75
2023-03-28T19:51:54.484Z,101737.03
2023-03-28T19:54:21.481Z,101737.22
2023-03-28T19:56:48.669Z,101731.31
2023-03-28T19:59:15.195Z,101727.22
2023-03-28T20:01:41.823Z,101733.94
2023-03-28T20:04:09.621Z,101729.19
2023-03-28T20:06:36.662Z,101732.09
2023-03-28T20:09:03.538Z,101733.03
2023-03-28T20:11:30.106Z,101736.28
2023-03-28T20:13:57.228Z,101724.97
2023-03-28T20:16:23.799Z,101727.53
2023-03-28T20:18:50.311Z,101718.94
2023-03-28T20:21:16.858Z,101716.56
2023-03-28T20:23:43.340Z,101718.81
2023-03-28T20:26:18.673Z,101710.94
2023-03-28T20:28:49.717Z,101710.19
2023-03-28T20:31:17.641Z,101712.94
2023-03-28T20:33:44.947Z,101708.22
2023-03-28T20:36:11.499Z,101710.44
2023-03-28T20:38:38.563Z,101704.09
2023-03-28T20:41:16.088Z,101702.66
2023-03-28T20:43:46.961Z,101692.16
2023-03-28T20:46:18.996Z,101687.88
2023-03-28T20:48:47.004Z,101686.44
2023-03-28T20:51:15.890Z,101682.16
2023-03-28T20:53:44.385Z,101685.03
2023-03-28T20:56:12.059Z,101686.84
2023-03-28T20:58:39.212Z,101678.88
2023-03-28T21:01:07.244Z,101682.38
2023-03-28T21:03:46.507Z,101684.78
2023-03-28T21:06:15.660Z,101682.41
2023-03-28T21:08:45.695Z,101686.09
2023-03-28T21:11:16.390Z,101678.78
2023-03-28T21:13:42.955Z,101686.72
2023-03-28T21:16:10.449Z,101673.34
2023-03-28T21:18:40.160Z,101680.69
2023-03-28T21:21:10.920Z,101668.44
2023-03-28T21:23:38.946Z,101677.69
2023-03-28T21:26:09.562Z,101684.03
2023-03-28T21:28:36.571Z,101665.59
2023-03-28T21:31:09.005Z,101668.75
2023-03-28T21:33:36.723Z,101662.38
2023-03-28T21:36:05.050Z,101671.00
2023-03-28T21:38:31.558Z,101674.03
2023-03-28T21:40:58.088Z,101671.00
2023-03-28T21:43:24.665Z,101671.00
2023-03-28T21:45:51.211Z,101663.16
2023-03-28T21:48:17.787Z,101653.91
2023-03-28T21:50:53.237Z,101662.53
2023-03-28T21:53:20.759Z,101661.75
2023-03-28T21:55:47.427Z,101661.44
2023-03-28T21:58:13.971Z,101652.19
2023-03-28T22:00:40.767Z,101664.16
2023-03-28T22:03:07.652Z,101656.22
2023-03-28T22:05:40.112Z,101660.84
2023-03-28T22:08:08.862Z,101657.00
2023-03-28T22:10:37.485Z,101660.69
2023-03-28T22:13:06.677Z,101653.19
2023-03-28T22:15:33.262Z,101659.56
2023-03-28T22:17:59.838Z,101655.91
2023-03-28T22:20:27.875Z,101654.31
2023-03-28T22:22:55.039Z,101642.19
2023-03-28T22:25:22.621Z,101646.84
2023-03-28T22:27:49.275Z,101649.09
2023-03-28T22:30:15.860Z,101642.25
2023-03-28T22:32:42.564Z,101643.53
2023-03-28T22:35:11.101Z,101643.69
2023-03-28T22:37:38.137Z,101647.38
2023-03-28T22:40:08.346Z,101644.19
2023-03-28T22:42:34.839Z,101641.97
2023-03-28T22:45:01.775Z,101636.25
2023-03-28T22:47:30.252Z,101636.84
2023-03-28T22:49:58.164Z,101635.72
2023-03-28T22:52:26.187Z,101630.50
2023-03-28T22:54:52.993Z,101634.81
2023-03-28T22:57:19.660Z,101627.78
2023-03-28T22:59:46.667Z,101625.88
2023-03-28T23:02:13.270Z,101629.22
2023-03-28T23:04:40.177Z,101620.47
2023-03-28T23:07:06.988Z,101618.72
2023-03-28T23:09:33.466Z,101617.13
2023-03-28T23:11:59.999Z,101612.19
2023-03-28T23:14:27.313Z,101612.50
2023-03-28T23:16:54.097Z,101612.06
2023-03-28T23:19:20.608Z,101609.19
2023-03-28T23:21:48.377Z,101613.78
2023-03-28T23:24:15.046Z,101607.94
2023-03-28T23:26:41.545Z,101600.44
2023-03-28T23:29:08.062Z,101586.44
2023-03-28T23:31:34.603Z,101580.09
2023-03-28T23:34:01.115Z,101582.63
2023-03-28T23:36:30.184Z,101579.63
2023-03-28T23:38:57.544Z,101584.22
2023-03-28T23:41:24.022Z,101576.13
2023-03-28T23:43:50.679Z,101574.22
2023-03-28T23:46:17.256Z,101575.00
2023-03-28T23:48:43.807Z,101569.13
2023-03-28T23:51:10.452Z,101566.44
2023-03-28T23:53:36.949Z,101569.59
2023-03-28T23:56:03.817Z,101565.31
2023-03-28T23:58:30.352Z,101569.44
